ローマ/フィウミチーノ の空港の天気 - METARとTAF

ローマ・レオナルド・ダ・ビンチ国際空港 ( LIRF / FCO ) - イタリア ローマ
飛行場実況気象(Metar)
観測時間03/22 19:50 CET (03/22 18:50 UTC)
風向・風速北西 4m/s
視程10km以上
天気現象
なし
気温15℃
湿度55%
気圧1023hPa
METARLIRF 221850Z 31007KT CAVOK 15/06 Q1023 NOSIG
過去の天気等 Google飛行場航空写真 Wunderground天気予報

過去48時間のMETAR

飛行場予報(TAF)
発表時間: 3/22 18:00 CET (3/22 17:00 UTC)
予報対象時間: 22日19時 CET ~ 24日1時 CET
風向・風速北西 5m/s
視程10km以上
なし
22日19時 CET ~ 22日22時 CET に徐々に
風向・風速北北東 4m/s
23日11時 CET ~ 23日13時 CET に徐々に
風向・風速南西 5m/s
23日17時 CET ~ 23日20時 CET に徐々に
風向・風速不定 3m/s
TAF LIRF 221700Z 2218/2324 32010KT CAVOK
BECMG 2218/2221 02008KT
BECMG 2310/2312 22010KT
BECMG 2316/2319 VRB05KT